sensor_id;sensor_type;location;lat;lon;timestamp;pressure;altitude;pressure_sealevel;temperature
41940;BMP180;23057;48.554;14.454;2022-08-01T00:01:06;93857.00;;;25.70
41940;BMP180;23057;48.554;14.454;2022-08-01T00:03:37;93858.00;;;25.70
41940;BMP180;23057;48.554;14.454;2022-08-01T00:06:08;93853.00;;;25.70
41940;BMP180;23057;48.554;14.454;2022-08-01T00:08:38;93845.00;;;25.60
41940;BMP180;23057;48.554;14.454;2022-08-01T00:11:09;93856.00;;;25.60
41940;BMP180;23057;48.554;14.454;2022-08-01T00:13:40;93847.00;;;25.50
41940;BMP180;23057;48.554;14.454;2022-08-01T00:16:12;93838.00;;;25.40
41940;BMP180;23057;48.554;14.454;2022-08-01T00:18:43;93825.00;;;25.30
41940;BMP180;23057;48.554;14.454;2022-08-01T00:21:13;93831.00;;;25.20
41940;BMP180;23057;48.554;14.454;2022-08-01T00:23:44;93824.00;;;25.10
41940;BMP180;23057;48.554;14.454;2022-08-01T00:26:18;93821.00;;;25.00
41940;BMP180;23057;48.554;14.454;2022-08-01T00:28:48;93816.00;;;25.00
41940;BMP180;23057;48.554;14.454;2022-08-01T00:31:19;93824.00;;;25.00
41940;BMP180;23057;48.554;14.454;2022-08-01T00:33:50;93822.00;;;25.10
41940;BMP180;23057;48.554;14.454;2022-08-01T00:36:21;93817.00;;;25.10
41940;BMP180;23057;48.554;14.454;2022-08-01T00:38:51;93812.00;;;25.10
41940;BMP180;23057;48.554;14.454;2022-08-01T00:41:22;93814.00;;;25.20
41940;BMP180;23057;48.554;14.454;2022-08-01T00:43:53;93817.00;;;25.20
41940;BMP180;23057;48.554;14.454;2022-08-01T00:46:24;93818.00;;;25.20
41940;BMP180;23057;48.554;14.454;2022-08-01T00:48:56;93820.00;;;25.20
41940;BMP180;23057;48.554;14.454;2022-08-01T00:51:28;93825.00;;;25.30
41940;BMP180;23057;48.554;14.454;2022-08-01T00:53:59;93815.00;;;25.30
41940;BMP180;23057;48.554;14.454;2022-08-01T00:56:31;93811.00;;;25.30
41940;BMP180;23057;48.554;14.454;2022-08-01T00:59:03;93814.00;;;25.30
41940;BMP180;23057;48.554;14.454;2022-08-01T01:01:34;93803.00;;;25.30
41940;BMP180;23057;48.554;14.454;2022-08-01T01:04:05;93802.00;;;25.30
41940;BMP180;23057;48.554;14.454;2022-08-01T01:09:39;93801.00;;;25.30
41940;BMP180;23057;48.554;14.454;2022-08-01T01:15:40;93804.00;;;25.40
41940;BMP180;23057;48.554;14.454;2022-08-01T01:18:30;93803.00;;;25.40
41940;BMP180;23057;48.554;14.454;2022-08-01T01:29:54;93798.00;;;25.40
41940;BMP180;23057;48.554;14.454;2022-08-01T01:32:33;93788.00;;;25.40
41940;BMP180;23057;48.554;14.454;2022-08-01T01:35:22;93795.00;;;25.40
41940;BMP180;23057;48.554;14.454;2022-08-01T01:38:01;93786.00;;;25.50
41940;BMP180;23057;48.554;14.454;2022-08-01T01:40:38;93787.00;;;25.50
41940;BMP180;23057;48.554;14.454;2022-08-01T01:43:11;93786.00;;;25.50
41940;BMP180;23057;48.554;14.454;2022-08-01T01:45:45;93785.00;;;25.50
41940;BMP180;23057;48.554;14.454;2022-08-01T01:48:19;93787.00;;;25.50
41940;BMP180;23057;48.554;14.454;2022-08-01T01:50:52;93779.00;;;25.50
41940;BMP180;23057;48.554;14.454;2022-08-01T01:53:25;93782.00;;;25.50
41940;BMP180;23057;48.554;14.454;2022-08-01T01:56:00;93770.00;;;25.40
41940;BMP180;23057;48.554;14.454;2022-08-01T01:58:33;93764.00;;;25.40
41940;BMP180;23057;48.554;14.454;2022-08-01T02:01:08;93775.00;;;25.30
41940;BMP180;23057;48.554;14.454;2022-08-01T02:03:40;93774.00;;;25.30
41940;BMP180;23057;48.554;14.454;2022-08-01T02:06:14;93772.00;;;25.30
41940;BMP180;23057;48.554;14.454;2022-08-01T02:08:47;93773.00;;;25.20
41940;BMP180;23057;48.554;14.454;2022-08-01T02:11:19;93767.00;;;25.20
41940;BMP180;23057;48.554;14.454;2022-08-01T02:13:59;93766.00;;;25.30
41940;BMP180;23057;48.554;14.454;2022-08-01T02:16:35;93772.00;;;25.30
41940;BMP180;23057;48.554;14.454;2022-08-01T02:19:08;93772.00;;;25.30
41940;BMP180;23057;48.554;14.454;2022-08-01T02:21:46;93768.00;;;25.20
41940;BMP180;23057;48.554;14.454;2022-08-01T02:24:32;93761.00;;;25.10
41940;BMP180;23057;48.554;14.454;2022-08-01T02:27:12;93756.00;;;24.90
41940;BMP180;23057;48.554;14.454;2022-08-01T02:29:55;93753.00;;;24.90
41940;BMP180;23057;48.554;14.454;2022-08-01T02:32:35;93750.00;;;24.80
41940;BMP180;23057;48.554;14.454;2022-08-01T02:35:13;93755.00;;;24.80
41940;BMP180;23057;48.554;14.454;2022-08-01T02:37:52;93753.00;;;24.90
41940;BMP180;23057;48.554;14.454;2022-08-01T02:40:31;93750.00;;;24.90
41940;BMP180;23057;48.554;14.454;2022-08-01T02:43:05;93751.00;;;24.90
41940;BMP180;23057;48.554;14.454;2022-08-01T02:45:40;93745.00;;;24.90
41940;BMP180;23057;48.554;14.454;2022-08-01T02:48:15;93744.00;;;24.90
41940;BMP180;23057;48.554;14.454;2022-08-01T02:50:51;93744.00;;;24.90
41940;BMP180;23057;48.554;14.454;2022-08-01T02:53:27;93742.00;;;24.90
41940;BMP180;23057;48.554;14.454;2022-08-01T02:56:05;93743.00;;;24.90
41940;BMP180;23057;48.554;14.454;2022-08-01T02:58:39;93737.00;;;24.90
41940;BMP180;23057;48.554;14.454;2022-08-01T03:01:13;93740.00;;;24.90
41940;BMP180;23057;48.554;14.454;2022-08-01T03:03:47;93737.00;;;24.90
41940;BMP180;23057;48.554;14.454;2022-08-01T03:06:18;93737.00;;;24.90
41940;BMP180;23057;48.554;14.454;2022-08-01T03:08:50;93731.00;;;24.80
41940;BMP180;23057;48.554;14.454;2022-08-01T03:11:24;93734.00;;;24.80
41940;BMP180;23057;48.554;14.454;2022-08-01T03:13:59;93747.00;;;24.80
41940;BMP180;23057;48.554;14.454;2022-08-01T03:16:35;93739.00;;;24.80
41940;BMP180;23057;48.554;14.454;2022-08-01T03:19:11;93741.00;;;24.80
41940;BMP180;23057;48.554;14.454;2022-08-01T03:21:43;93741.00;;;24.80
41940;BMP180;23057;48.554;14.454;2022-08-01T03:24:15;93742.00;;;24.80
41940;BMP180;23057;48.554;14.454;2022-08-01T03:26:49;93744.00;;;24.80
41940;BMP180;23057;48.554;14.454;2022-08-01T03:29:26;93750.00;;;24.80
41940;BMP180;23057;48.554;14.454;2022-08-01T03:32:00;93737.00;;;24.70
41940;BMP180;23057;48.554;14.454;2022-08-01T03:34:32;93740.00;;;24.70
41940;BMP180;23057;48.554;14.454;2022-08-01T03:37:07;93740.00;;;24.70
41940;BMP180;23057;48.554;14.454;2022-08-01T03:40:00;93736.00;;;24.70
41940;BMP180;23057;48.554;14.454;2022-08-01T03:42:48;93743.00;;;24.70
41940;BMP180;23057;48.554;14.454;2022-08-01T03:45:25;93740.00;;;24.60
41940;BMP180;23057;48.554;14.454;2022-08-01T03:48:09;93737.00;;;24.60
41940;BMP180;23057;48.554;14.454;2022-08-01T03:50:50;93742.00;;;24.60
41940;BMP180;23057;48.554;14.454;2022-08-01T03:53:25;93739.00;;;24.60
41940;BMP180;23057;48.554;14.454;2022-08-01T03:56:02;93745.00;;;24.60
41940;BMP180;23057;48.554;14.454;2022-08-01T03:58:36;93745.00;;;24.60
41940;BMP180;23057;48.554;14.454;2022-08-01T04:01:10;93742.00;;;24.70
41940;BMP180;23057;48.554;14.454;2022-08-01T04:03:42;93749.00;;;24.70
41940;BMP180;23057;48.554;14.454;2022-08-01T04:06:14;93745.00;;;24.70
41940;BMP180;23057;48.554;14.454;2022-08-01T04:08:45;93741.00;;;24.70
41940;BMP180;23057;48.554;14.454;2022-08-01T04:11:26;93748.00;;;24.70
41940;BMP180;23057;48.554;14.454;2022-08-01T04:13:58;93751.00;;;24.70
41940;BMP180;23057;48.554;14.454;2022-08-01T04:16:29;93745.00;;;24.70
41940;BMP180;23057;48.554;14.454;2022-08-01T04:19:00;93747.00;;;24.70
41940;BMP180;23057;48.554;14.454;2022-08-01T04:21:32;93750.00;;;24.70
41940;BMP180;23057;48.554;14.454;2022-08-01T04:24:14;93745.00;;;24.80
41940;BMP180;23057;48.554;14.454;2022-08-01T04:26:50;93753.00;;;24.80
41940;BMP180;23057;48.554;14.454;2022-08-01T04:29:23;93748.00;;;24.80
41940;BMP180;23057;48.554;14.454;2022-08-01T04:31:56;93750.00;;;24.80
41940;BMP180;23057;48.554;14.454;2022-08-01T04:34:31;93752.00;;;24.80
41940;BMP180;23057;48.554;14.454;2022-08-01T04:37:03;93749.00;;;24.80
41940;BMP180;23057;48.554;14.454;2022-08-01T04:39:37;93745.00;;;24.90
41940;BMP180;23057;48.554;14.454;2022-08-01T04:42:11;93753.00;;;24.90
41940;BMP180;23057;48.554;14.454;2022-08-01T04:44:44;93755.00;;;25.00
41940;BMP180;23057;48.554;14.454;2022-08-01T04:47:15;93752.00;;;25.00
41940;BMP180;23057;48.554;14.454;2022-08-01T04:49:47;93756.00;;;24.90
41940;BMP180;23057;48.554;14.454;2022-08-01T04:52:19;93757.00;;;24.90
41940;BMP180;23057;48.554;14.454;2022-08-01T04:54:50;93755.00;;;24.90
41940;BMP180;23057;48.554;14.454;2022-08-01T04:57:21;93755.00;;;25.00
41940;BMP180;23057;48.554;14.454;2022-08-01T04:59:51;93758.00;;;25.00
41940;BMP180;23057;48.554;14.454;2022-08-01T05:02:27;93758.00;;;25.10
41940;BMP180;23057;48.554;14.454;2022-08-01T05:04:59;93758.00;;;25.10
41940;BMP180;23057;48.554;14.454;2022-08-01T05:07:30;93766.00;;;25.00
41940;BMP180;23057;48.554;14.454;2022-08-01T05:10:00;93765.00;;;25.00
41940;BMP180;23057;48.554;14.454;2022-08-01T05:12:32;93754.00;;;25.00
41940;BMP180;23057;48.554;14.454;2022-08-01T05:15:03;93753.00;;;25.00
41940;BMP180;23057;48.554;14.454;2022-08-01T05:17:34;93760.00;;;25.10
41940;BMP180;23057;48.554;14.454;2022-08-01T05:20:05;93764.00;;;25.10
41940;BMP180;23057;48.554;14.454;2022-08-01T05:22:37;93765.00;;;25.10
41940;BMP180;23057;48.554;14.454;2022-08-01T05:25:08;93763.00;;;25.20
41940;BMP180;23057;48.554;14.454;2022-08-01T05:27:39;93763.00;;;25.20
41940;BMP180;23057;48.554;14.454;2022-08-01T05:30:11;93760.00;;;25.20
41940;BMP180;23057;48.554;14.454;2022-08-01T05:32:42;93765.00;;;25.20
41940;BMP180;23057;48.554;14.454;2022-08-01T05:35:12;93767.00;;;25.20
41940;BMP180;23057;48.554;14.454;2022-08-01T05:37:43;93763.00;;;25.20
41940;BMP180;23057;48.554;14.454;2022-08-01T05:40:14;93762.00;;;25.30
41940;BMP180;23057;48.554;14.454;2022-08-01T05:42:45;93761.00;;;25.30
41940;BMP180;23057;48.554;14.454;2022-08-01T05:45:16;93765.00;;;25.40
41940;BMP180;23057;48.554;14.454;2022-08-01T05:47:46;93761.00;;;25.40
41940;BMP180;23057;48.554;14.454;2022-08-01T05:50:17;93766.00;;;25.50
41940;BMP180;23057;48.554;14.454;2022-08-01T05:52:48;93767.00;;;25.50
41940;BMP180;23057;48.554;14.454;2022-08-01T05:55:19;93769.00;;;25.60
41940;BMP180;23057;48.554;14.454;2022-08-01T05:57:50;93770.00;;;25.70
41940;BMP180;23057;48.554;14.454;2022-08-01T06:00:21;93766.00;;;25.90
41940;BMP180;23057;48.554;14.454;2022-08-01T06:02:52;93777.00;;;26.00
41940;BMP180;23057;48.554;14.454;2022-08-01T06:05:23;93781.00;;;26.10
41940;BMP180;23057;48.554;14.454;2022-08-01T06:07:53;93786.00;;;26.20
41940;BMP180;23057;48.554;14.454;2022-08-01T06:10:24;93782.00;;;26.30
41940;BMP180;23057;48.554;14.454;2022-08-01T06:12:55;93787.00;;;26.40
41940;BMP180;23057;48.554;14.454;2022-08-01T06:15:26;93792.00;;;26.50
41940;BMP180;23057;48.554;14.454;2022-08-01T06:17:57;93806.00;;;26.80
41940;BMP180;23057;48.554;14.454;2022-08-01T06:20:28;93804.00;;;27.10
41940;BMP180;23057;48.554;14.454;2022-08-01T06:22:59;93810.00;;;27.40
41940;BMP180;23057;48.554;14.454;2022-08-01T06:25:30;93809.00;;;27.60
41940;BMP180;23057;48.554;14.454;2022-08-01T06:28:01;93814.00;;;27.80
41940;BMP180;23057;48.554;14.454;2022-08-01T06:30:32;93812.00;;;27.90
41940;BMP180;23057;48.554;14.454;2022-08-01T06:33:03;93815.00;;;27.90
41940;BMP180;23057;48.554;14.454;2022-08-01T06:35:35;93814.00;;;28.00
41940;BMP180;23057;48.554;14.454;2022-08-01T06:38:06;93820.00;;;28.10
41940;BMP180;23057;48.554;14.454;2022-08-01T06:40:37;93819.00;;;28.20
41940;BMP180;23057;48.554;14.454;2022-08-01T06:43:08;93815.00;;;28.20
41940;BMP180;23057;48.554;14.454;2022-08-01T06:45:41;93816.00;;;28.30
41940;BMP180;23057;48.554;14.454;2022-08-01T06:48:13;93817.00;;;28.40
41940;BMP180;23057;48.554;14.454;2022-08-01T06:50:44;93815.00;;;28.50
41940;BMP180;23057;48.554;14.454;2022-08-01T06:53:15;93811.00;;;28.70
41940;BMP180;23057;48.554;14.454;2022-08-01T06:55:46;93808.00;;;28.90
41940;BMP180;23057;48.554;14.454;2022-08-01T06:58:17;93813.00;;;29.10
41940;BMP180;23057;48.554;14.454;2022-08-01T07:00:48;93815.00;;;29.20
41940;BMP180;23057;48.554;14.454;2022-08-01T07:03:19;93820.00;;;29.40
41940;BMP180;23057;48.554;14.454;2022-08-01T07:05:49;93820.00;;;29.50
41940;BMP180;23057;48.554;14.454;2022-08-01T07:08:20;93814.00;;;29.70
41940;BMP180;23057;48.554;14.454;2022-08-01T07:10:51;93821.00;;;29.90
41940;BMP180;23057;48.554;14.454;2022-08-01T07:13:22;93819.00;;;30.10
41940;BMP180;23057;48.554;14.454;2022-08-01T07:15:55;93825.00;;;30.30
41940;BMP180;23057;48.554;14.454;2022-08-01T07:18:26;93829.00;;;30.50
41940;BMP180;23057;48.554;14.454;2022-08-01T07:20:57;93822.00;;;30.70
41940;BMP180;23057;48.554;14.454;2022-08-01T07:23:28;93827.00;;;30.90
41940;BMP180;23057;48.554;14.454;2022-08-01T07:25:58;93826.00;;;31.00
41940;BMP180;23057;48.554;14.454;2022-08-01T07:28:31;93828.00;;;31.20
41940;BMP180;23057;48.554;14.454;2022-08-01T07:31:02;93828.00;;;31.40
41940;BMP180;23057;48.554;14.454;2022-08-01T07:33:33;93820.00;;;31.60
41940;BMP180;23057;48.554;14.454;2022-08-01T07:36:04;93818.00;;;31.70
41940;BMP180;23057;48.554;14.454;2022-08-01T07:38:35;93822.00;;;31.90
41940;BMP180;23057;48.554;14.454;2022-08-01T07:41:05;93821.00;;;32.00
41940;BMP180;23057;48.554;14.454;2022-08-01T07:43:37;93823.00;;;32.10
41940;BMP180;23057;48.554;14.454;2022-08-01T07:46:07;93832.00;;;32.30
41940;BMP180;23057;48.554;14.454;2022-08-01T07:48:38;93829.00;;;32.50
41940;BMP180;23057;48.554;14.454;2022-08-01T07:51:09;93827.00;;;32.60
41940;BMP180;23057;48.554;14.454;2022-08-01T07:53:41;93828.00;;;32.80
41940;BMP180;23057;48.554;14.454;2022-08-01T07:56:12;93832.00;;;32.90
41940;BMP180;23057;48.554;14.454;2022-08-01T07:58:43;93830.00;;;33.00
41940;BMP180;23057;48.554;14.454;2022-08-01T08:01:13;93833.00;;;33.20
41940;BMP180;23057;48.554;14.454;2022-08-01T08:03:44;93832.00;;;33.30
41940;BMP180;23057;48.554;14.454;2022-08-01T08:06:15;93833.00;;;33.50
41940;BMP180;23057;48.554;14.454;2022-08-01T08:08:46;93828.00;;;33.60
41940;BMP180;23057;48.554;14.454;2022-08-01T08:11:17;93834.00;;;33.60
41940;BMP180;23057;48.554;14.454;2022-08-01T08:13:47;93832.00;;;33.70
41940;BMP180;23057;48.554;14.454;2022-08-01T08:16:18;93828.00;;;33.80
41940;BMP180;23057;48.554;14.454;2022-08-01T08:18:51;93834.00;;;33.50
41940;BMP180;23057;48.554;14.454;2022-08-01T08:21:21;93836.00;;;33.40
41940;BMP180;23057;48.554;14.454;2022-08-01T08:23:52;93838.00;;;33.40
41940;BMP180;23057;48.554;14.454;2022-08-01T08:26:42;93842.00;;;33.40
41940;BMP180;23057;48.554;14.454;2022-08-01T08:29:13;93842.00;;;33.50
41940;BMP180;23057;48.554;14.454;2022-08-01T08:31:44;93840.00;;;33.60
41940;BMP180;23057;48.554;14.454;2022-08-01T08:34:15;93847.00;;;33.70
41940;BMP180;23057;48.554;14.454;2022-08-01T08:36:46;93853.00;;;33.70
41940;BMP180;23057;48.554;14.454;2022-08-01T08:39:18;93851.00;;;33.70
41940;BMP180;23057;48.554;14.454;2022-08-01T08:41:49;93857.00;;;33.70
41940;BMP180;23057;48.554;14.454;2022-08-01T08:44:20;93864.00;;;33.60
41940;BMP180;23057;48.554;14.454;2022-08-01T08:46:51;93860.00;;;33.40
41940;BMP180;23057;48.554;14.454;2022-08-01T08:49:25;93865.00;;;33.20
41940;BMP180;23057;48.554;14.454;2022-08-01T08:51:59;93875.00;;;33.10
41940;BMP180;23057;48.554;14.454;2022-08-01T08:54:32;93873.00;;;33.10
41940;BMP180;23057;48.554;14.454;2022-08-01T08:57:03;93869.00;;;33.00
41940;BMP180;23057;48.554;14.454;2022-08-01T08:59:36;93868.00;;;33.00
41940;BMP180;23057;48.554;14.454;2022-08-01T09:02:07;93852.00;;;33.10
41940;BMP180;23057;48.554;14.454;2022-08-01T09:04:40;93862.00;;;33.00
41940;BMP180;23057;48.554;14.454;2022-08-01T09:07:11;93860.00;;;33.10
41940;BMP180;23057;48.554;14.454;2022-08-01T09:09:44;93862.00;;;33.10
41940;BMP180;23057;48.554;14.454;2022-08-01T09:12:18;93859.00;;;33.20
41940;BMP180;23057;48.554;14.454;2022-08-01T09:14:50;93858.00;;;33.10
41940;BMP180;23057;48.554;14.454;2022-08-01T09:17:23;93853.00;;;32.90
41940;BMP180;23057;48.554;14.454;2022-08-01T09:19:55;93859.00;;;32.90
41940;BMP180;23057;48.554;14.454;2022-08-01T09:22:32;93855.00;;;32.80
41940;BMP180;23057;48.554;14.454;2022-08-01T09:25:06;93855.00;;;32.90
41940;BMP180;23057;48.554;14.454;2022-08-01T09:27:39;93855.00;;;33.00
41940;BMP180;23057;48.554;14.454;2022-08-01T09:30:14;93850.00;;;33.20
41940;BMP180;23057;48.554;14.454;2022-08-01T09:33:03;93842.00;;;33.30
41940;BMP180;23057;48.554;14.454;2022-08-01T09:35:35;93850.00;;;33.30
41940;BMP180;23057;48.554;14.454;2022-08-01T09:40:56;93852.00;;;33.40
41940;BMP180;23057;48.554;14.454;2022-08-01T09:43:31;93850.00;;;33.40
41940;BMP180;23057;48.554;14.454;2022-08-01T09:46:09;93849.00;;;33.30
41940;BMP180;23057;48.554;14.454;2022-08-01T09:49:03;93844.00;;;33.10
41940;BMP180;23057;48.554;14.454;2022-08-01T09:51:37;93848.00;;;32.90
41940;BMP180;23057;48.554;14.454;2022-08-01T09:54:09;93840.00;;;32.80
41940;BMP180;23057;48.554;14.454;2022-08-01T09:56:42;93841.00;;;32.80
41940;BMP180;23057;48.554;14.454;2022-08-01T09:59:13;93849.00;;;32.70
41940;BMP180;23057;48.554;14.454;2022-08-01T10:01:46;93846.00;;;32.60
41940;BMP180;23057;48.554;14.454;2022-08-01T10:04:20;93858.00;;;32.50
41940;BMP180;23057;48.554;14.454;2022-08-01T10:07:03;93864.00;;;32.30
41940;BMP180;23057;48.554;14.454;2022-08-01T10:09:36;93869.00;;;32.30
41940;BMP180;23057;48.554;14.454;2022-08-01T10:12:09;93871.00;;;32.20
41940;BMP180;23057;48.554;14.454;2022-08-01T10:14:42;93871.00;;;32.10
41940;BMP180;23057;48.554;14.454;2022-08-01T10:17:18;93875.00;;;32.20
41940;BMP180;23057;48.554;14.454;2022-08-01T10:19:50;93873.00;;;32.20
41940;BMP180;23057;48.554;14.454;2022-08-01T10:22:26;93870.00;;;31.90
41940;BMP180;23057;48.554;14.454;2022-08-01T10:25:03;93864.00;;;31.60
41940;BMP180;23057;48.554;14.454;2022-08-01T10:27:36;93866.00;;;31.50
41940;BMP180;23057;48.554;14.454;2022-08-01T10:30:09;93859.00;;;31.40
41940;BMP180;23057;48.554;14.454;2022-08-01T10:32:41;93864.00;;;31.30
41940;BMP180;23057;48.554;14.454;2022-08-01T10:35:13;93857.00;;;31.20
41940;BMP180;23057;48.554;14.454;2022-08-01T10:37:47;93868.00;;;31.10
41940;BMP180;23057;48.554;14.454;2022-08-01T10:40:21;93873.00;;;31.00
41940;BMP180;23057;48.554;14.454;2022-08-01T10:42:53;93873.00;;;31.00
41940;BMP180;23057;48.554;14.454;2022-08-01T10:45:24;93881.00;;;30.90
41940;BMP180;23057;48.554;14.454;2022-08-01T10:51:08;93897.00;;;30.30
41940;BMP180;23057;48.554;14.454;2022-08-01T10:53:46;93896.00;;;30.00
41940;BMP180;23057;48.554;14.454;2022-08-01T10:56:23;93891.00;;;29.70
41940;BMP180;23057;48.554;14.454;2022-08-01T10:59:03;93889.00;;;29.50
41940;BMP180;23057;48.554;14.454;2022-08-01T11:01:34;93891.00;;;29.30
41940;BMP180;23057;48.554;14.454;2022-08-01T11:04:14;93886.00;;;29.20
41940;BMP180;23057;48.554;14.454;2022-08-01T11:09:43;93876.00;;;29.20
41940;BMP180;23057;48.554;14.454;2022-08-01T11:12:17;93880.00;;;29.30
41940;BMP180;23057;48.554;14.454;2022-08-01T11:20:12;93885.00;;;29.50
41940;BMP180;23057;48.554;14.454;2022-08-01T11:41:29;93878.00;;;30.60
41940;BMP180;23057;48.554;14.454;2022-08-01T11:46:59;93869.00;;;30.90
41940;BMP180;23057;48.554;14.454;2022-08-01T11:54:45;93882.00;;;30.50
41940;BMP180;23057;48.554;14.454;2022-08-01T11:57:25;93891.00;;;30.50
41940;BMP180;23057;48.554;14.454;2022-08-01T12:00:10;93885.00;;;30.40
41940;BMP180;23057;48.554;14.454;2022-08-01T12:02:46;93879.00;;;30.40
41940;BMP180;23057;48.554;14.454;2022-08-01T12:05:27;93872.00;;;30.50
41940;BMP180;23057;48.554;14.454;2022-08-01T12:08:00;93868.00;;;30.60
41940;BMP180;23057;48.554;14.454;2022-08-01T12:10:35;93876.00;;;30.60
41940;BMP180;23057;48.554;14.454;2022-08-01T12:13:06;93867.00;;;30.80
41940;BMP180;23057;48.554;14.454;2022-08-01T12:15:37;93866.00;;;31.00
41940;BMP180;23057;48.554;14.454;2022-08-01T12:18:08;93861.00;;;31.10
41940;BMP180;23057;48.554;14.454;2022-08-01T12:20:41;93862.00;;;31.30
41940;BMP180;23057;48.554;14.454;2022-08-01T12:23:15;93860.00;;;31.40
41940;BMP180;23057;48.554;14.454;2022-08-01T12:25:51;93852.00;;;31.50
41940;BMP180;23057;48.554;14.454;2022-08-01T12:28:22;93856.00;;;31.60
41940;BMP180;23057;48.554;14.454;2022-08-01T12:30:53;93857.00;;;31.60
41940;BMP180;23057;48.554;14.454;2022-08-01T12:33:24;93852.00;;;31.50
41940;BMP180;23057;48.554;14.454;2022-08-01T12:35:55;93856.00;;;31.50
41940;BMP180;23057;48.554;14.454;2022-08-01T12:38:26;93852.00;;;31.60
41940;BMP180;23057;48.554;14.454;2022-08-01T12:40:58;93854.00;;;31.70
41940;BMP180;23057;48.554;14.454;2022-08-01T12:43:31;93856.00;;;31.80
41940;BMP180;23057;48.554;14.454;2022-08-01T12:46:02;93853.00;;;31.80
41940;BMP180;23057;48.554;14.454;2022-08-01T12:48:34;93850.00;;;31.70
41940;BMP180;23057;48.554;14.454;2022-08-01T12:51:05;93852.00;;;31.70
41940;BMP180;23057;48.554;14.454;2022-08-01T12:53:39;93848.00;;;31.70
41940;BMP180;23057;48.554;14.454;2022-08-01T12:56:11;93863.00;;;31.70
41940;BMP180;23057;48.554;14.454;2022-08-01T12:58:42;93862.00;;;31.70
41940;BMP180;23057;48.554;14.454;2022-08-01T13:01:13;93857.00;;;31.50
41940;BMP180;23057;48.554;14.454;2022-08-01T13:03:57;93866.00;;;31.40
41940;BMP180;23057;48.554;14.454;2022-08-01T13:06:30;93858.00;;;31.30
41940;BMP180;23057;48.554;14.454;2022-08-01T13:09:05;93871.00;;;31.20
41940;BMP180;23057;48.554;14.454;2022-08-01T13:11:37;93864.00;;;31.10
41940;BMP180;23057;48.554;14.454;2022-08-01T13:14:09;93867.00;;;31.10
41940;BMP180;23057;48.554;14.454;2022-08-01T13:16:47;93862.00;;;31.20
41940;BMP180;23057;48.554;14.454;2022-08-01T13:19:18;93861.00;;;31.30
41940;BMP180;23057;48.554;14.454;2022-08-01T13:21:56;93848.00;;;31.60
41940;BMP180;23057;48.554;14.454;2022-08-01T13:24:28;93854.00;;;31.80
41940;BMP180;23057;48.554;14.454;2022-08-01T13:27:01;93849.00;;;31.90
41940;BMP180;23057;48.554;14.454;2022-08-01T13:29:35;93849.00;;;32.00
41940;BMP180;23057;48.554;14.454;2022-08-01T13:34:44;93837.00;;;32.20
41940;BMP180;23057;48.554;14.454;2022-08-01T13:37:15;93850.00;;;32.20
41940;BMP180;23057;48.554;14.454;2022-08-01T13:39:46;93856.00;;;32.10
41940;BMP180;23057;48.554;14.454;2022-08-01T13:42:17;93850.00;;;32.10
41940;BMP180;23057;48.554;14.454;2022-08-01T13:44:49;93853.00;;;32.10
41940;BMP180;23057;48.554;14.454;2022-08-01T13:47:19;93860.00;;;32.00
41940;BMP180;23057;48.554;14.454;2022-08-01T13:49:50;93860.00;;;32.00
41940;BMP180;23057;48.554;14.454;2022-08-01T13:52:21;93862.00;;;32.00
41940;BMP180;23057;48.554;14.454;2022-08-01T13:54:52;93852.00;;;32.10
41940;BMP180;23057;48.554;14.454;2022-08-01T13:57:23;93851.00;;;32.20
41940;BMP180;23057;48.554;14.454;2022-08-01T13:59:54;93852.00;;;32.30
41940;BMP180;23057;48.554;14.454;2022-08-01T14:02:26;93855.00;;;32.40
41940;BMP180;23057;48.554;14.454;2022-08-01T14:04:57;93853.00;;;32.60
41940;BMP180;23057;48.554;14.454;2022-08-01T14:07:28;93853.00;;;32.60
41940;BMP180;23057;48.554;14.454;2022-08-01T14:09:59;93852.00;;;32.60
41940;BMP180;23057;48.554;14.454;2022-08-01T14:12:30;93853.00;;;32.60
41940;BMP180;23057;48.554;14.454;2022-08-01T14:15:01;93853.00;;;32.80
41940;BMP180;23057;48.554;14.454;2022-08-01T14:17:32;93858.00;;;33.00
41940;BMP180;23057;48.554;14.454;2022-08-01T14:20:03;93852.00;;;33.10
41940;BMP180;23057;48.554;14.454;2022-08-01T14:22:35;93861.00;;;33.10
41940;BMP180;23057;48.554;14.454;2022-08-01T14:25:07;93861.00;;;33.20
41940;BMP180;23057;48.554;14.454;2022-08-01T14:27:38;93863.00;;;33.40
41940;BMP180;23057;48.554;14.454;2022-08-01T14:30:12;93859.00;;;33.50
41940;BMP180;23057;48.554;14.454;2022-08-01T14:32:43;93863.00;;;33.40
41940;BMP180;23057;48.554;14.454;2022-08-01T14:35:14;93859.00;;;33.20
41940;BMP180;23057;48.554;14.454;2022-08-01T14:37:44;93861.00;;;32.90
41940;BMP180;23057;48.554;14.454;2022-08-01T14:40:15;93864.00;;;32.80
41940;BMP180;23057;48.554;14.454;2022-08-01T14:42:46;93871.00;;;32.70
41940;BMP180;23057;48.554;14.454;2022-08-01T14:45:17;93867.00;;;32.50
41940;BMP180;23057;48.554;14.454;2022-08-01T14:47:48;93860.00;;;32.40
41940;BMP180;23057;48.554;14.454;2022-08-01T14:50:19;93858.00;;;32.30
41940;BMP180;23057;48.554;14.454;2022-08-01T14:52:50;93857.00;;;32.10
41940;BMP180;23057;48.554;14.454;2022-08-01T14:55:21;93861.00;;;32.00
41940;BMP180;23057;48.554;14.454;2022-08-01T14:57:55;93867.00;;;31.90
41940;BMP180;23057;48.554;14.454;2022-08-01T15:00:26;93862.00;;;31.90
41940;BMP180;23057;48.554;14.454;2022-08-01T15:02:56;93864.00;;;31.80
41940;BMP180;23057;48.554;14.454;2022-08-01T15:05:27;93858.00;;;31.80
41940;BMP180;23057;48.554;14.454;2022-08-01T15:07:59;93858.00;;;31.90
41940;BMP180;23057;48.554;14.454;2022-08-01T15:10:30;93852.00;;;32.00
41940;BMP180;23057;48.554;14.454;2022-08-01T15:13:02;93862.00;;;32.10
41940;BMP180;23057;48.554;14.454;2022-08-01T15:15:33;93858.00;;;32.20
41940;BMP180;23057;48.554;14.454;2022-08-01T15:18:04;93856.00;;;32.30
41940;BMP180;23057;48.554;14.454;2022-08-01T15:20:35;93858.00;;;32.40
41940;BMP180;23057;48.554;14.454;2022-08-01T15:23:06;93848.00;;;32.40
41940;BMP180;23057;48.554;14.454;2022-08-01T15:25:37;93846.00;;;32.40
41940;BMP180;23057;48.554;14.454;2022-08-01T15:28:08;93848.00;;;32.40